sensor_id;sensor_type;location;lat;lon;timestamp;P1;durP1;ratioP1;P2;durP2;ratioP2
32152;SDS011;18656;50.580;11.392;2023-04-24T00:00:01;2.60;;;2.25;;
32152;SDS011;18656;50.580;11.392;2023-04-24T00:02:31;4.13;;;2.80;;
32152;SDS011;18656;50.580;11.392;2023-04-24T00:05:02;2.40;;;2.30;;
32152;SDS011;18656;50.580;11.392;2023-04-24T00:07:30;2.50;;;2.30;;
32152;SDS011;18656;50.580;11.392;2023-04-24T00:09:58;2.33;;;2.13;;
32152;SDS011;18656;50.580;11.392;2023-04-24T00:12:25;2.22;;;2.13;;
32152;SDS011;18656;50.580;11.392;2023-04-24T00:14:53;2.20;;;1.90;;
32152;SDS011;18656;50.580;11.392;2023-04-24T00:17:20;3.38;;;1.90;;
32152;SDS011;18656;50.580;11.392;2023-04-24T00:19:47;2.10;;;2.00;;
32152;SDS011;18656;50.580;11.392;2023-04-24T00:22:17;4.00;;;2.10;;
32152;SDS011;18656;50.580;11.392;2023-04-24T00:24:46;3.22;;;2.50;;
32152;SDS011;18656;50.580;11.392;2023-04-24T00:27:14;2.67;;;2.47;;
32152;SDS011;18656;50.580;11.392;2023-04-24T00:29:41;3.00;;;2.72;;
32152;SDS011;18656;50.580;11.392;2023-04-24T00:32:08;6.43;;;3.22;;
32152;SDS011;18656;50.580;11.392;2023-04-24T00:34:36;6.90;;;2.45;;
32152;SDS011;18656;50.580;11.392;2023-04-24T00:37:03;3.20;;;2.30;;
32152;SDS011;18656;50.580;11.392;2023-04-24T00:39:30;2.45;;;2.25;;
32152;SDS011;18656;50.580;11.392;2023-04-24T00:41:58;3.55;;;2.65;;
32152;SDS011;18656;50.580;11.392;2023-04-24T00:44:25;2.63;;;2.20;;
32152;SDS011;18656;50.580;11.392;2023-04-24T00:46:52;2.17;;;2.08;;
32152;SDS011;18656;50.580;11.392;2023-04-24T00:49:21;2.72;;;2.53;;
32152;SDS011;18656;50.580;11.392;2023-04-24T00:51:48;2.60;;;2.40;;
32152;SDS011;18656;50.580;11.392;2023-04-24T00:54:17;2.22;;;2.13;;
32152;SDS011;18656;50.580;11.392;2023-04-24T00:56:45;2.35;;;2.25;;
32152;SDS011;18656;50.580;11.392;2023-04-24T00:59:13;4.28;;;2.80;;
32152;SDS011;18656;50.580;11.392;2023-04-24T01:01:40;2.75;;;2.55;;
32152;SDS011;18656;50.580;11.392;2023-04-24T01:04:09;2.55;;;2.33;;
32152;SDS011;18656;50.580;11.392;2023-04-24T01:06:37;2.50;;;2.30;;
32152;SDS011;18656;50.580;11.392;2023-04-24T01:09:05;2.70;;;2.45;;
32152;SDS011;18656;50.580;11.392;2023-04-24T01:11:34;5.72;;;2.95;;
32152;SDS011;18656;50.580;11.392;2023-04-24T01:14:01;4.07;;;3.78;;
32152;SDS011;18656;50.580;11.392;2023-04-24T01:16:28;4.88;;;3.88;;
32152;SDS011;18656;50.580;11.392;2023-04-24T01:18:56;4.70;;;3.50;;
32152;SDS011;18656;50.580;11.392;2023-04-24T01:21:23;4.47;;;3.90;;
32152;SDS011;18656;50.580;11.392;2023-04-24T01:23:50;5.70;;;3.53;;
32152;SDS011;18656;50.580;11.392;2023-04-24T01:26:18;8.13;;;4.72;;
32152;SDS011;18656;50.580;11.392;2023-04-24T01:28:46;4.00;;;3.70;;
32152;SDS011;18656;50.580;11.392;2023-04-24T01:31:14;5.78;;;4.22;;
32152;SDS011;18656;50.580;11.392;2023-04-24T01:33:42;4.82;;;3.63;;
32152;SDS011;18656;50.580;11.392;2023-04-24T01:36:10;3.83;;;3.53;;
32152;SDS011;18656;50.580;11.392;2023-04-24T01:38:38;3.33;;;3.13;;
32152;SDS011;18656;50.580;11.392;2023-04-24T01:41:05;4.57;;;3.10;;
32152;SDS011;18656;50.580;11.392;2023-04-24T01:43:32;2.72;;;2.53;;
32152;SDS011;18656;50.580;11.392;2023-04-24T01:45:59;3.22;;;3.03;;
32152;SDS011;18656;50.580;11.392;2023-04-24T01:48:27;3.55;;;3.00;;
32152;SDS011;18656;50.580;11.392;2023-04-24T01:50:54;2.80;;;2.60;;
32152;SDS011;18656;50.580;11.392;2023-04-24T01:53:21;2.70;;;2.38;;
32152;SDS011;18656;50.580;11.392;2023-04-24T01:55:48;2.90;;;2.75;;
32152;SDS011;18656;50.580;11.392;2023-04-24T01:58:15;3.58;;;2.58;;
32152;SDS011;18656;50.580;11.392;2023-04-24T02:00:43;3.33;;;3.00;;
32152;SDS011;18656;50.580;11.392;2023-04-24T02:03:10;6.25;;;2.63;;
32152;SDS011;18656;50.580;11.392;2023-04-24T02:05:38;4.13;;;3.15;;
32152;SDS011;18656;50.580;11.392;2023-04-24T02:08:05;3.33;;;3.03;;
32152;SDS011;18656;50.580;11.392;2023-04-24T02:10:33;5.05;;;3.38;;
32152;SDS011;18656;50.580;11.392;2023-04-24T02:13:00;11.35;;;3.50;;
32152;SDS011;18656;50.580;11.392;2023-04-24T02:15:27;4.85;;;3.70;;
32152;SDS011;18656;50.580;11.392;2023-04-24T02:17:54;3.42;;;3.13;;
32152;SDS011;18656;50.580;11.392;2023-04-24T02:20:21;3.80;;;3.05;;
32152;SDS011;18656;50.580;11.392;2023-04-24T02:22:49;5.75;;;3.60;;
32152;SDS011;18656;50.580;11.392;2023-04-24T02:25:16;5.45;;;2.97;;
32152;SDS011;18656;50.580;11.392;2023-04-24T02:27:45;3.92;;;2.35;;
32152;SDS011;18656;50.580;11.392;2023-04-24T02:30:13;3.65;;;2.25;;
32152;SDS011;18656;50.580;11.392;2023-04-24T02:32:40;2.58;;;2.38;;
32152;SDS011;18656;50.580;11.392;2023-04-24T02:35:07;2.92;;;1.90;;
32152;SDS011;18656;50.580;11.392;2023-04-24T02:37:35;2.75;;;1.88;;
32152;SDS011;18656;50.580;11.392;2023-04-24T02:40:02;1.90;;;1.80;;
32152;SDS011;18656;50.580;11.392;2023-04-24T02:42:30;2.03;;;1.92;;
32152;SDS011;18656;50.580;11.392;2023-04-24T02:44:57;4.32;;;2.00;;
32152;SDS011;18656;50.580;11.392;2023-04-24T02:47:24;3.90;;;2.05;;
32152;SDS011;18656;50.580;11.392;2023-04-24T02:49:52;3.20;;;1.70;;
32152;SDS011;18656;50.580;11.392;2023-04-24T02:52:19;2.85;;;1.90;;
32152;SDS011;18656;50.580;11.392;2023-04-24T02:54:46;3.25;;;1.92;;
32152;SDS011;18656;50.580;11.392;2023-04-24T02:57:13;1.95;;;1.75;;
32152;SDS011;18656;50.580;11.392;2023-04-24T02:59:41;1.52;;;1.50;;
32152;SDS011;18656;50.580;11.392;2023-04-24T03:02:09;2.97;;;1.60;;
32152;SDS011;18656;50.580;11.392;2023-04-24T03:04:36;1.88;;;1.60;;
32152;SDS011;18656;50.580;11.392;2023-04-24T03:07:04;4.32;;;1.50;;
32152;SDS011;18656;50.580;11.392;2023-04-24T03:09:31;1.33;;;1.23;;
32152;SDS011;18656;50.580;11.392;2023-04-24T03:11:58;1.20;;;1.10;;
32152;SDS011;18656;50.580;11.392;2023-04-24T03:14:26;1.50;;;1.27;;
32152;SDS011;18656;50.580;11.392;2023-04-24T03:16:55;1.35;;;1.10;;
32152;SDS011;18656;50.580;11.392;2023-04-24T03:19:23;2.20;;;1.13;;
32152;SDS011;18656;50.580;11.392;2023-04-24T03:21:50;1.88;;;1.00;;
32152;SDS011;18656;50.580;11.392;2023-04-24T03:24:17;1.38;;;1.27;;
32152;SDS011;18656;50.580;11.392;2023-04-24T03:26:44;2.63;;;1.00;;
32152;SDS011;18656;50.580;11.392;2023-04-24T03:29:12;1.02;;;0.90;;
32152;SDS011;18656;50.580;11.392;2023-04-24T03:31:39;2.85;;;0.70;;
32152;SDS011;18656;50.580;11.392;2023-04-24T03:34:06;1.45;;;1.00;;
32152;SDS011;18656;50.580;11.392;2023-04-24T03:36:33;3.35;;;1.02;;
32152;SDS011;18656;50.580;11.392;2023-04-24T03:39:00;1.10;;;0.95;;
32152;SDS011;18656;50.580;11.392;2023-04-24T03:41:27;2.80;;;0.90;;
32152;SDS011;18656;50.580;11.392;2023-04-24T03:43:56;5.18;;;0.90;;
32152;SDS011;18656;50.580;11.392;2023-04-24T03:46:23;1.25;;;1.00;;
32152;SDS011;18656;50.580;11.392;2023-04-24T03:48:50;3.15;;;0.93;;
32152;SDS011;18656;50.580;11.392;2023-04-24T03:51:18;0.68;;;0.68;;
32152;SDS011;18656;50.580;11.392;2023-04-24T03:53:45;2.28;;;0.90;;
32152;SDS011;18656;50.580;11.392;2023-04-24T03:56:12;1.63;;;0.90;;
32152;SDS011;18656;50.580;11.392;2023-04-24T03:58:39;1.40;;;0.88;;
32152;SDS011;18656;50.580;11.392;2023-04-24T04:01:07;2.10;;;0.98;;
32152;SDS011;18656;50.580;11.392;2023-04-24T04:03:34;0.90;;;0.90;;
32152;SDS011;18656;50.580;11.392;2023-04-24T04:06:02;4.70;;;0.93;;
32152;SDS011;18656;50.580;11.392;2023-04-24T04:08:29;2.15;;;0.65;;
32152;SDS011;18656;50.580;11.392;2023-04-24T04:10:56;8.75;;;1.25;;
32152;SDS011;18656;50.580;11.392;2023-04-24T04:13:23;4.43;;;0.90;;
32152;SDS011;18656;50.580;11.392;2023-04-24T04:15:50;4.47;;;1.00;;
32152;SDS011;18656;50.580;11.392;2023-04-24T04:18:18;1.55;;;0.63;;
32152;SDS011;18656;50.580;11.392;2023-04-24T04:20:45;2.13;;;0.98;;
32152;SDS011;18656;50.580;11.392;2023-04-24T04:23:12;1.90;;;1.20;;
32152;SDS011;18656;50.580;11.392;2023-04-24T04:25:39;6.65;;;4.78;;
32152;SDS011;18656;50.580;11.392;2023-04-24T04:28:07;8.35;;;6.63;;
32152;SDS011;18656;50.580;11.392;2023-04-24T04:30:34;3.30;;;1.02;;
32152;SDS011;18656;50.580;11.392;2023-04-24T04:33:04;3.15;;;1.42;;
32152;SDS011;18656;50.580;11.392;2023-04-24T04:35:31;1.83;;;0.70;;
32152;SDS011;18656;50.580;11.392;2023-04-24T04:37:58;4.18;;;1.00;;
32152;SDS011;18656;50.580;11.392;2023-04-24T04:40:26;2.42;;;1.17;;
32152;SDS011;18656;50.580;11.392;2023-04-24T04:42:54;8.63;;;1.15;;
32152;SDS011;18656;50.580;11.392;2023-04-24T04:45:21;2.22;;;0.80;;
32152;SDS011;18656;50.580;11.392;2023-04-24T04:47:50;1.73;;;0.82;;
32152;SDS011;18656;50.580;11.392;2023-04-24T04:50:17;1.92;;;1.00;;
32152;SDS011;18656;50.580;11.392;2023-04-24T04:52:45;3.13;;;1.08;;
32152;SDS011;18656;50.580;11.392;2023-04-24T04:55:12;5.18;;;1.35;;
32152;SDS011;18656;50.580;11.392;2023-04-24T04:57:40;2.70;;;1.10;;
32152;SDS011;18656;50.580;11.392;2023-04-24T05:00:08;6.75;;;1.20;;
32152;SDS011;18656;50.580;11.392;2023-04-24T05:02:36;2.83;;;1.25;;
32152;SDS011;18656;50.580;11.392;2023-04-24T05:05:04;2.17;;;0.75;;
32152;SDS011;18656;50.580;11.392;2023-04-24T05:07:34;0.77;;;0.60;;
32152;SDS011;18656;50.580;11.392;2023-04-24T05:10:01;5.35;;;1.00;;
32152;SDS011;18656;50.580;11.392;2023-04-24T05:12:29;3.42;;;1.08;;
32152;SDS011;18656;50.580;11.392;2023-04-24T05:14:56;1.00;;;0.70;;
32152;SDS011;18656;50.580;11.392;2023-04-24T05:17:23;3.30;;;0.65;;
32152;SDS011;18656;50.580;11.392;2023-04-24T05:19:50;1.75;;;0.63;;
32152;SDS011;18656;50.580;11.392;2023-04-24T05:22:18;1.60;;;0.88;;
32152;SDS011;18656;50.580;11.392;2023-04-24T05:24:47;1.75;;;0.90;;
32152;SDS011;18656;50.580;11.392;2023-04-24T05:27:14;1.58;;;0.75;;
32152;SDS011;18656;50.580;11.392;2023-04-24T05:29:41;4.82;;;0.80;;
32152;SDS011;18656;50.580;11.392;2023-04-24T05:32:10;1.50;;;0.88;;
32152;SDS011;18656;50.580;11.392;2023-04-24T05:34:37;2.80;;;0.85;;
32152;SDS011;18656;50.580;11.392;2023-04-24T05:37:04;1.70;;;0.63;;
32152;SDS011;18656;50.580;11.392;2023-04-24T05:39:34;2.38;;;0.70;;
32152;SDS011;18656;50.580;11.392;2023-04-24T05:42:01;4.88;;;0.90;;
32152;SDS011;18656;50.580;11.392;2023-04-24T05:44:30;3.45;;;1.25;;
32152;SDS011;18656;50.580;11.392;2023-04-24T05:46:57;2.05;;;0.70;;
32152;SDS011;18656;50.580;11.392;2023-04-24T05:49:25;11.65;;;1.60;;
32152;SDS011;18656;50.580;11.392;2023-04-24T05:51:52;7.82;;;1.63;;
32152;SDS011;18656;50.580;11.392;2023-04-24T05:54:19;0.88;;;0.60;;
32152;SDS011;18656;50.580;11.392;2023-04-24T05:56:46;1.92;;;0.68;;
32152;SDS011;18656;50.580;11.392;2023-04-24T05:59:13;1.27;;;0.60;;
32152;SDS011;18656;50.580;11.392;2023-04-24T06:01:41;2.50;;;0.80;;
32152;SDS011;18656;50.580;11.392;2023-04-24T06:04:08;1.55;;;0.57;;
32152;SDS011;18656;50.580;11.392;2023-04-24T06:06:36;3.03;;;0.60;;
32152;SDS011;18656;50.580;11.392;2023-04-24T06:09:03;3.53;;;0.65;;
32152;SDS011;18656;50.580;11.392;2023-04-24T06:11:31;10.10;;;0.95;;
32152;SDS011;18656;50.580;11.392;2023-04-24T06:13:58;1.17;;;0.55;;
32152;SDS011;18656;50.580;11.392;2023-04-24T06:16:26;2.22;;;0.60;;
32152;SDS011;18656;50.580;11.392;2023-04-24T06:18:53;1.70;;;0.52;;
32152;SDS011;18656;50.580;11.392;2023-04-24T06:21:21;3.95;;;0.70;;
32152;SDS011;18656;50.580;11.392;2023-04-24T06:23:48;3.53;;;0.60;;
32152;SDS011;18656;50.580;11.392;2023-04-24T06:26:15;3.53;;;0.82;;
32152;SDS011;18656;50.580;11.392;2023-04-24T06:28:43;3.33;;;0.90;;
32152;SDS011;18656;50.580;11.392;2023-04-24T06:31:10;4.82;;;0.63;;
32152;SDS011;18656;50.580;11.392;2023-04-24T06:33:37;9.20;;;0.85;;
32152;SDS011;18656;50.580;11.392;2023-04-24T06:36:04;7.85;;;1.23;;
32152;SDS011;18656;50.580;11.392;2023-04-24T06:38:32;6.85;;;0.75;;
32152;SDS011;18656;50.580;11.392;2023-04-24T06:41:00;3.03;;;0.70;;
32152;SDS011;18656;50.580;11.392;2023-04-24T06:43:27;16.63;;;2.72;;
32152;SDS011;18656;50.580;11.392;2023-04-24T06:45:54;5.20;;;1.02;;
32152;SDS011;18656;50.580;11.392;2023-04-24T06:48:22;4.85;;;0.47;;
32152;SDS011;18656;50.580;11.392;2023-04-24T06:50:49;1.65;;;0.52;;
32152;SDS011;18656;50.580;11.392;2023-04-24T06:53:16;4.50;;;0.98;;
32152;SDS011;18656;50.580;11.392;2023-04-24T06:55:43;1.65;;;0.60;;
32152;SDS011;18656;50.580;11.392;2023-04-24T06:58:12;0.30;;;0.30;;
32152;SDS011;18656;50.580;11.392;2023-04-24T07:00:40;1.10;;;0.30;;
32152;SDS011;18656;50.580;11.392;2023-04-24T07:03:07;1.88;;;0.20;;
32152;SDS011;18656;50.580;11.392;2023-04-24T07:05:35;0.75;;;0.35;;
32152;SDS011;18656;50.580;11.392;2023-04-24T07:08:03;11.90;;;0.93;;
32152;SDS011;18656;50.580;11.392;2023-04-24T07:10:30;1.90;;;0.50;;
32152;SDS011;18656;50.580;11.392;2023-04-24T07:12:57;5.20;;;0.75;;
32152;SDS011;18656;50.580;11.392;2023-04-24T07:15:24;0.85;;;0.30;;
32152;SDS011;18656;50.580;11.392;2023-04-24T07:17:52;1.17;;;0.28;;
32152;SDS011;18656;50.580;11.392;2023-04-24T07:20:19;2.15;;;0.30;;
32152;SDS011;18656;50.580;11.392;2023-04-24T07:22:47;0.40;;;0.20;;
32152;SDS011;18656;50.580;11.392;2023-04-24T07:25:15;1.95;;;0.50;;
32152;SDS011;18656;50.580;11.392;2023-04-24T07:27:42;6.60;;;0.50;;
32152;SDS011;18656;50.580;11.392;2023-04-24T07:30:09;0.73;;;0.30;;
32152;SDS011;18656;50.580;11.392;2023-04-24T07:32:37;4.93;;;0.50;;
32152;SDS011;18656;50.580;11.392;2023-04-24T07:35:04;0.70;;;0.43;;
32152;SDS011;18656;50.580;11.392;2023-04-24T07:37:32;2.38;;;0.40;;
32152;SDS011;18656;50.580;11.392;2023-04-24T07:39:59;3.17;;;0.50;;
32152;SDS011;18656;50.580;11.392;2023-04-24T07:42:26;2.28;;;0.40;;
32152;SDS011;18656;50.580;11.392;2023-04-24T07:44:53;0.80;;;0.80;;
32152;SDS011;18656;50.580;11.392;2023-04-24T07:47:21;8.55;;;1.83;;
32152;SDS011;18656;50.580;11.392;2023-04-24T07:49:48;2.33;;;1.13;;
32152;SDS011;18656;50.580;11.392;2023-04-24T07:52:15;1.20;;;0.63;;
32152;SDS011;18656;50.580;11.392;2023-04-24T07:54:43;0.95;;;0.80;;
32152;SDS011;18656;50.580;11.392;2023-04-24T07:57:10;0.80;;;0.80;;
32152;SDS011;18656;50.580;11.392;2023-04-24T07:59:37;12.32;;;0.90;;
32152;SDS011;18656;50.580;11.392;2023-04-24T08:02:04;2.35;;;0.30;;
32152;SDS011;18656;50.580;11.392;2023-04-24T08:04:32;1.88;;;0.50;;
32152;SDS011;18656;50.580;11.392;2023-04-24T08:07:00;2.08;;;0.50;;
32152;SDS011;18656;50.580;11.392;2023-04-24T08:09:27;0.20;;;0.20;;
32152;SDS011;18656;50.580;11.392;2023-04-24T08:11:54;1.27;;;0.50;;
32152;SDS011;18656;50.580;11.392;2023-04-24T08:14:21;0.90;;;0.50;;
32152;SDS011;18656;50.580;11.392;2023-04-24T08:16:49;0.80;;;0.47;;
32152;SDS011;18656;50.580;11.392;2023-04-24T08:19:16;12.18;;;0.70;;
32152;SDS011;18656;50.580;11.392;2023-04-24T08:21:43;1.10;;;0.45;;
32152;SDS011;18656;50.580;11.392;2023-04-24T08:24:10;0.80;;;0.63;;
32152;SDS011;18656;50.580;11.392;2023-04-24T08:26:37;4.32;;;0.60;;
32152;SDS011;18656;50.580;11.392;2023-04-24T08:29:05;3.00;;;0.50;;
32152;SDS011;18656;50.580;11.392;2023-04-24T08:31:32;1.95;;;0.50;;
32152;SDS011;18656;50.580;11.392;2023-04-24T08:34:00;2.97;;;1.30;;
32152;SDS011;18656;50.580;11.392;2023-04-24T08:36:27;6.82;;;1.05;;
32152;SDS011;18656;50.580;11.392;2023-04-24T08:39:11;0.95;;;0.70;;
32152;SDS011;18656;50.580;11.392;2023-04-24T08:41:39;0.63;;;0.50;;
32152;SDS011;18656;50.580;11.392;2023-04-24T08:44:09;0.60;;;0.40;;
32152;SDS011;18656;50.580;11.392;2023-04-24T08:46:36;13.00;;;1.00;;
32152;SDS011;18656;50.580;11.392;2023-04-24T08:49:04;0.47;;;0.47;;
32152;SDS011;18656;50.580;11.392;2023-04-24T08:51:31;2.08;;;0.75;;
32152;SDS011;18656;50.580;11.392;2023-04-24T08:53:58;2.65;;;1.40;;
32152;SDS011;18656;50.580;11.392;2023-04-24T08:56:26;1.20;;;1.10;;
32152;SDS011;18656;50.580;11.392;2023-04-24T08:58:53;0.63;;;0.63;;
32152;SDS011;18656;50.580;11.392;2023-04-24T09:01:21;3.03;;;0.60;;
32152;SDS011;18656;50.580;11.392;2023-04-24T09:03:49;0.50;;;0.50;;
32152;SDS011;18656;50.580;11.392;2023-04-24T09:06:17;1.75;;;0.40;;
32152;SDS011;18656;50.580;11.392;2023-04-24T09:08:45;0.75;;;0.75;;
32152;SDS011;18656;50.580;11.392;2023-04-24T09:11:12;2.25;;;0.60;;
32152;SDS011;18656;50.580;11.392;2023-04-24T09:13:39;8.57;;;1.17;;
32152;SDS011;18656;50.580;11.392;2023-04-24T09:16:07;1.65;;;1.55;;
32152;SDS011;18656;50.580;11.392;2023-04-24T09:18:34;3.10;;;1.00;;
32152;SDS011;18656;50.580;11.392;2023-04-24T09:23:29;1.65;;;1.23;;
32152;SDS011;18656;50.580;11.392;2023-04-24T09:25:57;1.98;;;0.50;;
32152;SDS011;18656;50.580;11.392;2023-04-24T09:28:27;3.60;;;0.70;;
32152;SDS011;18656;50.580;11.392;2023-04-24T09:31:03;4.30;;;0.82;;
32152;SDS011;18656;50.580;11.392;2023-04-24T09:33:30;1.05;;;0.82;;
32152;SDS011;18656;50.580;11.392;2023-04-24T09:35:58;3.08;;;0.70;;
32152;SDS011;18656;50.580;11.392;2023-04-24T09:38:35;0.60;;;0.60;;
32152;SDS011;18656;50.580;11.392;2023-04-24T09:41:04;2.63;;;0.80;;
32152;SDS011;18656;50.580;11.392;2023-04-24T09:43:32;0.70;;;0.70;;
32152;SDS011;18656;50.580;11.392;2023-04-24T09:46:04;1.10;;;0.68;;
32152;SDS011;18656;50.580;11.392;2023-04-24T09:48:35;2.22;;;0.77;;
32152;SDS011;18656;50.580;11.392;2023-04-24T09:51:05;0.50;;;0.50;;
32152;SDS011;18656;50.580;11.392;2023-04-24T09:53:33;4.32;;;0.80;;
32152;SDS011;18656;50.580;11.392;2023-04-24T09:56:10;0.88;;;0.88;;
32152;SDS011;18656;50.580;11.392;2023-04-24T09:58:39;1.70;;;0.93;;
32152;SDS011;18656;50.580;11.392;2023-04-24T10:01:06;2.95;;;0.57;;
32152;SDS011;18656;50.580;11.392;2023-04-24T10:03:34;0.95;;;0.73;;
32152;SDS011;18656;50.580;11.392;2023-04-24T10:06:01;0.77;;;0.57;;
32152;SDS011;18656;50.580;11.392;2023-04-24T10:08:33;3.28;;;0.70;;
32152;SDS011;18656;50.580;11.392;2023-04-24T10:11:00;0.77;;;0.43;;
32152;SDS011;18656;50.580;11.392;2023-04-24T10:13:28;0.60;;;0.55;;
32152;SDS011;18656;50.580;11.392;2023-04-24T10:15:56;30.95;;;2.47;;
32152;SDS011;18656;50.580;11.392;2023-04-24T10:18:23;6.78;;;0.82;;
32152;SDS011;18656;50.580;11.392;2023-04-24T10:20:51;25.30;;;1.98;;
32152;SDS011;18656;50.580;11.392;2023-04-24T10:23:21;1.80;;;0.80;;
32152;SDS011;18656;50.580;11.392;2023-04-24T10:25:49;0.70;;;0.70;;
32152;SDS011;18656;50.580;11.392;2023-04-24T10:28:17;0.57;;;0.57;;
32152;SDS011;18656;50.580;11.392;2023-04-24T10:30:45;6.65;;;0.80;;
32152;SDS011;18656;50.580;11.392;2023-04-24T10:33:13;9.00;;;1.48;;
32152;SDS011;18656;50.580;11.392;2023-04-24T10:35:41;2.92;;;0.85;;
32152;SDS011;18656;50.580;11.392;2023-04-24T10:38:11;0.80;;;0.45;;
32152;SDS011;18656;50.580;11.392;2023-04-24T10:40:39;0.95;;;0.50;;
32152;SDS011;18656;50.580;11.392;2023-04-24T10:43:07;3.13;;;0.70;;
32152;SDS011;18656;50.580;11.392;2023-04-24T10:45:37;4.40;;;0.75;;
32152;SDS011;18656;50.580;11.392;2023-04-24T10:48:06;0.47;;;0.40;;
32152;SDS011;18656;50.580;11.392;2023-04-24T10:50:44;0.57;;;0.57;;
32152;SDS011;18656;50.580;11.392;2023-04-24T10:53:15;3.22;;;0.60;;
32152;SDS011;18656;50.580;11.392;2023-04-24T10:55:44;0.50;;;0.50;;
32152;SDS011;18656;50.580;11.392;2023-04-24T10:58:12;1.58;;;0.50;;
32152;SDS011;18656;50.580;11.392;2023-04-24T11:00:40;2.90;;;0.82;;
32152;SDS011;18656;50.580;11.392;2023-04-24T11:03:54;1.25;;;0.68;;
32152;SDS011;18656;50.580;11.392;2023-04-24T11:10:57;1.80;;;0.50;;
32152;SDS011;18656;50.580;11.392;2023-04-24T11:13:26;0.75;;;0.60;;
32152;SDS011;18656;50.580;11.392;2023-04-24T11:16:13;4.70;;;0.73;;
32152;SDS011;18656;50.580;11.392;2023-04-24T11:18:41;2.80;;;0.77;;
32152;SDS011;18656;50.580;11.392;2023-04-24T11:21:12;4.53;;;1.30;;
32152;SDS011;18656;50.580;11.392;2023-04-24T11:23:39;1.02;;;0.82;;
32152;SDS011;18656;50.580;11.392;2023-04-24T11:26:11;2.42;;;0.70;;
32152;SDS011;18656;50.580;11.392;2023-04-24T11:28:48;13.70;;;0.80;;
32152;SDS011;18656;50.580;11.392;2023-04-24T11:31:33;0.80;;;0.60;;
32152;SDS011;18656;50.580;11.392;2023-04-24T11:34:14;0.65;;;0.63;;
32152;SDS011;18656;50.580;11.392;2023-04-24T11:36:47;1.00;;;0.90;;
32152;SDS011;18656;50.580;11.392;2023-04-24T11:39:14;6.60;;;1.40;;
32152;SDS011;18656;50.580;11.392;2023-04-24T11:41:42;2.30;;;0.70;;
32152;SDS011;18656;50.580;11.392;2023-04-24T11:44:09;7.50;;;1.38;;
32152;SDS011;18656;50.580;11.392;2023-04-24T11:46:37;1.83;;;0.70;;
32152;SDS011;18656;50.580;11.392;2023-04-24T11:49:06;4.75;;;1.00;;
32152;SDS011;18656;50.580;11.392;2023-04-24T11:51:34;0.60;;;0.60;;
32152;SDS011;18656;50.580;11.392;2023-04-24T11:54:16;2.00;;;0.75;;
32152;SDS011;18656;50.580;11.392;2023-04-24T11:56:47;1.33;;;0.60;;
32152;SDS011;18656;50.580;11.392;2023-04-24T11:59:14;0.85;;;0.50;;
32152;SDS011;18656;50.580;11.392;2023-04-24T12:01:45;5.18;;;0.93;;
32152;SDS011;18656;50.580;11.392;2023-04-24T12:04:13;0.88;;;0.60;;
32152;SDS011;18656;50.580;11.392;2023-04-24T12:07:02;1.73;;;0.63;;
32152;SDS011;18656;50.580;11.392;2023-04-24T12:09:28;2.70;;;0.90;;
32152;SDS011;18656;50.580;11.392;2023-04-24T12:11:56;2.53;;;0.70;;
32152;SDS011;18656;50.580;11.392;2023-04-24T12:14:23;5.00;;;0.63;;
32152;SDS011;18656;50.580;11.392;2023-04-24T12:16:51;0.60;;;0.60;;
32152;SDS011;18656;50.580;11.392;2023-04-24T12:19:21;0.50;;;0.50;;
32152;SDS011;18656;50.580;11.392;2023-04-24T12:22:01;8.60;;;1.13;;
32152;SDS011;18656;50.580;11.392;2023-04-24T12:24:29;2.22;;;0.60;;
32152;SDS011;18656;50.580;11.392;2023-04-24T12:26:57;1.33;;;0.68;;
32152;SDS011;18656;50.580;11.392;2023-04-24T12:29:24;6.07;;;1.30;;
32152;SDS011;18656;50.580;11.392;2023-04-24T12:31:52;7.65;;;1.15;;
32152;SDS011;18656;50.580;11.392;2023-04-24T12:34:20;3.47;;;0.90;;
32152;SDS011;18656;50.580;11.392;2023-04-24T12:36:48;4.57;;;0.70;;
32152;SDS011;18656;50.580;11.392;2023-04-24T12:39:15;2.67;;;0.73;;
32152;SDS011;18656;50.580;11.392;2023-04-24T12:41:56;0.80;;;0.80;;
32152;SDS011;18656;50.580;11.392;2023-04-24T12:44:33;2.70;;;0.90;;
32152;SDS011;18656;50.580;11.392;2023-04-24T12:47:01;5.53;;;1.13;;
32152;SDS011;18656;50.580;11.392;2023-04-24T12:49:29;2.50;;;1.00;;
32152;SDS011;18656;50.580;11.392;2023-04-24T12:52:00;3.67;;;1.00;;
32152;SDS011;18656;50.580;11.392;2023-04-24T12:54:32;1.48;;;0.77;;
32152;SDS011;18656;50.580;11.392;2023-04-24T12:56:59;1.42;;;0.80;;
32152;SDS011;18656;50.580;11.392;2023-04-24T12:59:27;1.20;;;0.73;;
32152;SDS011;18656;50.580;11.392;2023-04-24T13:01:54;0.70;;;0.70;;
32152;SDS011;18656;50.580;11.392;2023-04-24T13:04:21;1.60;;;0.65;;
32152;SDS011;18656;50.580;11.392;2023-04-24T13:06:49;3.97;;;0.88;;
32152;SDS011;18656;50.580;11.392;2023-04-24T13:09:16;4.25;;;0.90;;
32152;SDS011;18656;50.580;11.392;2023-04-24T13:11:44;1.73;;;0.70;;
32152;SDS011;18656;50.580;11.392;2023-04-24T13:14:11;1.90;;;0.65;;
32152;SDS011;18656;50.580;11.392;2023-04-24T13:16:38;1.25;;;0.93;;
32152;SDS011;18656;50.580;11.392;2023-04-24T13:19:05;1.42;;;0.82;;
32152;SDS011;18656;50.580;11.392;2023-04-24T13:21:32;9.48;;;1.27;;
32152;SDS011;18656;50.580;11.392;2023-04-24T13:24:00;0.75;;;0.75;;
32152;SDS011;18656;50.580;11.392;2023-04-24T13:26:27;0.70;;;0.60;;
32152;SDS011;18656;50.580;11.392;2023-04-24T13:28:54;0.82;;;0.43;;
32152;SDS011;18656;50.580;11.392;2023-04-24T13:31:21;2.22;;;0.70;;
32152;SDS011;18656;50.580;11.392;2023-04-24T13:33:49;0.82;;;0.82;;
32152;SDS011;18656;50.580;11.392;2023-04-24T13:36:16;0.50;;;0.50;;
32152;SDS011;18656;50.580;11.392;2023-04-24T13:38:44;0.55;;;0.52;;
32152;SDS011;18656;50.580;11.392;2023-04-24T13:41:11;0.55;;;0.50;;
32152;SDS011;18656;50.580;11.392;2023-04-24T13:43:38;3.45;;;1.35;;
32152;SDS011;18656;50.580;11.392;2023-04-24T13:46:08;0.88;;;0.50;;
32152;SDS011;18656;50.580;11.392;2023-04-24T13:48:35;0.63;;;0.63;;
32152;SDS011;18656;50.580;11.392;2023-04-24T13:51:03;0.50;;;0.50;;
32152;SDS011;18656;50.580;11.392;2023-04-24T13:53:30;1.88;;;0.80;;
32152;SDS011;18656;50.580;11.392;2023-04-24T13:55:59;0.80;;;0.73;;
32152;SDS011;18656;50.580;11.392;2023-04-24T13:58:26;2.47;;;0.52;;
32152;SDS011;18656;50.580;11.392;2023-04-24T14:00:53;8.50;;;1.00;;
32152;SDS011;18656;50.580;11.392;2023-04-24T14:03:21;1.58;;;0.40;;
32152;SDS011;18656;50.580;11.392;2023-04-24T14:05:49;1.02;;;1.02;;
32152;SDS011;18656;50.580;11.392;2023-04-24T14:08:16;0.80;;;0.80;;
32152;SDS011;18656;50.580;11.392;2023-04-24T14:10:43;9.35;;;1.38;;
32152;SDS011;18656;50.580;11.392;2023-04-24T14:13:10;1.00;;;1.00;;
32152;SDS011;18656;50.580;11.392;2023-04-24T14:15:37;12.00;;;1.00;;
32152;SDS011;18656;50.580;11.392;2023-04-24T14:18:05;11.77;;;1.00;;
32152;SDS011;18656;50.580;11.392;2023-04-24T14:20:32;2.90;;;0.77;;
32152;SDS011;18656;50.580;11.392;2023-04-24T14:22:59;3.92;;;0.88;;
32152;SDS011;18656;50.580;11.392;2023-04-24T14:25:26;1.65;;;0.70;;
32152;SDS011;18656;50.580;11.392;2023-04-24T14:27:54;3.20;;;0.77;;
32152;SDS011;18656;50.580;11.392;2023-04-24T14:30:21;0.60;;;0.60;;
32152;SDS011;18656;50.580;11.392;2023-04-24T14:32:48;0.43;;;0.43;;
32152;SDS011;18656;50.580;11.392;2023-04-24T14:35:16;0.50;;;0.50;;
32152;SDS011;18656;50.580;11.392;2023-04-24T14:37:43;6.93;;;0.77;;
32152;SDS011;18656;50.580;11.392;2023-04-24T14:40:10;2.05;;;0.90;;
32152;SDS011;18656;50.580;11.392;2023-04-24T14:42:57;8.00;;;1.00;;
32152;SDS011;18656;50.580;11.392;2023-04-24T14:45:25;1.05;;;0.57;;